sensor_id;sensor_type;location;lat;lon;timestamp;P1;durP1;ratioP1;P2;durP2;ratioP2
9330;SDS011;4704;50.470;12.072;2023-05-01T00:02:09;9.25;;;8.45;;
9330;SDS011;4704;50.470;12.072;2023-05-01T00:04:36;8.63;;;7.82;;
9330;SDS011;4704;50.470;12.072;2023-05-01T00:07:04;8.93;;;8.20;;
9330;SDS011;4704;50.470;12.072;2023-05-01T00:09:32;8.70;;;7.90;;
9330;SDS011;4704;50.470;12.072;2023-05-01T00:11:59;9.63;;;8.75;;
9330;SDS011;4704;50.470;12.072;2023-05-01T00:14:28;8.85;;;8.05;;
9330;SDS011;4704;50.470;12.072;2023-05-01T00:16:55;10.02;;;9.20;;
9330;SDS011;4704;50.470;12.072;2023-05-01T00:19:25;9.50;;;8.70;;
9330;SDS011;4704;50.470;12.072;2023-05-01T00:21:52;9.65;;;8.75;;
9330;SDS011;4704;50.470;12.072;2023-05-01T00:24:20;9.30;;;8.50;;
9330;SDS011;4704;50.470;12.072;2023-05-01T00:26:48;10.40;;;9.38;;
9330;SDS011;4704;50.470;12.072;2023-05-01T00:29:16;9.15;;;8.40;;
9330;SDS011;4704;50.470;12.072;2023-05-01T00:31:43;9.73;;;8.93;;
9330;SDS011;4704;50.470;12.072;2023-05-01T00:34:11;10.40;;;9.50;;
9330;SDS011;4704;50.470;12.072;2023-05-01T00:36:41;9.55;;;8.75;;
9330;SDS011;4704;50.470;12.072;2023-05-01T00:39:08;10.10;;;9.20;;
9330;SDS011;4704;50.470;12.072;2023-05-01T00:41:36;10.68;;;9.77;;
9330;SDS011;4704;50.470;12.072;2023-05-01T00:44:04;10.15;;;9.25;;
9330;SDS011;4704;50.470;12.072;2023-05-01T00:46:31;10.82;;;9.93;;
9330;SDS011;4704;50.470;12.072;2023-05-01T00:49:00;10.52;;;9.63;;
9330;SDS011;4704;50.470;12.072;2023-05-01T00:51:28;11.27;;;10.27;;
9330;SDS011;4704;50.470;12.072;2023-05-01T00:53:57;10.88;;;9.90;;
9330;SDS011;4704;50.470;12.072;2023-05-01T00:56:25;10.63;;;9.68;;
9330;SDS011;4704;50.470;12.072;2023-05-01T00:58:53;11.35;;;10.35;;
9330;SDS011;4704;50.470;12.072;2023-05-01T01:01:22;11.00;;;10.10;;
9330;SDS011;4704;50.470;12.072;2023-05-01T01:03:50;11.82;;;10.82;;
9330;SDS011;4704;50.470;12.072;2023-05-01T01:06:20;11.57;;;10.57;;
9330;SDS011;4704;50.470;12.072;2023-05-01T01:08:53;11.70;;;10.70;;
9330;SDS011;4704;50.470;12.072;2023-05-01T01:11:27;11.55;;;10.55;;
9330;SDS011;4704;50.470;12.072;2023-05-01T01:13:57;12.00;;;11.00;;
9330;SDS011;4704;50.470;12.072;2023-05-01T01:16:28;12.15;;;11.15;;
9330;SDS011;4704;50.470;12.072;2023-05-01T01:19:00;11.90;;;10.90;;
9330;SDS011;4704;50.470;12.072;2023-05-01T01:21:31;12.02;;;11.02;;
9330;SDS011;4704;50.470;12.072;2023-05-01T01:24:11;12.85;;;11.75;;
9330;SDS011;4704;50.470;12.072;2023-05-01T01:29:34;11.98;;;10.98;;
9330;SDS011;4704;50.470;12.072;2023-05-01T01:32:10;12.73;;;11.63;;
9330;SDS011;4704;50.470;12.072;2023-05-01T01:34:46;13.23;;;12.02;;
9330;SDS011;4704;50.470;12.072;2023-05-01T01:37:15;12.52;;;11.45;;
9330;SDS011;4704;50.470;12.072;2023-05-01T01:39:45;13.68;;;12.48;;
9330;SDS011;4704;50.470;12.072;2023-05-01T01:42:14;12.68;;;11.60;;
9330;SDS011;4704;50.470;12.072;2023-05-01T01:44:46;13.60;;;12.43;;
9330;SDS011;4704;50.470;12.072;2023-05-01T01:47:15;13.65;;;12.45;;
9330;SDS011;4704;50.470;12.072;2023-05-01T01:49:47;13.82;;;12.63;;
9330;SDS011;4704;50.470;12.072;2023-05-01T01:52:15;12.73;;;11.73;;
9330;SDS011;4704;50.470;12.072;2023-05-01T01:54:47;13.88;;;12.60;;
9330;SDS011;4704;50.470;12.072;2023-05-01T01:57:17;13.95;;;12.75;;
9330;SDS011;4704;50.470;12.072;2023-05-01T01:59:45;13.88;;;12.68;;
9330;SDS011;4704;50.470;12.072;2023-05-01T02:02:14;13.95;;;12.85;;
9330;SDS011;4704;50.470;12.072;2023-05-01T02:04:42;14.80;;;13.50;;
9330;SDS011;4704;50.470;12.072;2023-05-01T02:07:12;14.32;;;13.15;;
9330;SDS011;4704;50.470;12.072;2023-05-01T02:09:40;14.35;;;13.05;;
9330;SDS011;4704;50.470;12.072;2023-05-01T02:12:09;14.23;;;13.02;;
9330;SDS011;4704;50.470;12.072;2023-05-01T02:14:37;14.65;;;13.45;;
9330;SDS011;4704;50.470;12.072;2023-05-01T02:17:06;14.32;;;13.13;;
9330;SDS011;4704;50.470;12.072;2023-05-01T02:19:34;14.95;;;13.65;;
9330;SDS011;4704;50.470;12.072;2023-05-01T02:22:04;15.30;;;14.00;;
9330;SDS011;4704;50.470;12.072;2023-05-01T02:24:35;15.30;;;14.07;;
9330;SDS011;4704;50.470;12.072;2023-05-01T02:27:06;15.77;;;14.38;;
9330;SDS011;4704;50.470;12.072;2023-05-01T02:29:34;15.73;;;14.32;;
9330;SDS011;4704;50.470;12.072;2023-05-01T02:32:01;15.57;;;14.27;;
9330;SDS011;4704;50.470;12.072;2023-05-01T02:34:29;15.07;;;13.77;;
9330;SDS011;4704;50.470;12.072;2023-05-01T02:37:00;16.30;;;14.82;;
9330;SDS011;4704;50.470;12.072;2023-05-01T02:39:28;15.27;;;13.98;;
9330;SDS011;4704;50.470;12.072;2023-05-01T02:41:57;16.00;;;14.63;;
9330;SDS011;4704;50.470;12.072;2023-05-01T02:44:25;16.55;;;15.10;;
9330;SDS011;4704;50.470;12.072;2023-05-01T02:46:54;15.85;;;14.55;;
9330;SDS011;4704;50.470;12.072;2023-05-01T02:49:23;16.17;;;14.77;;
9330;SDS011;4704;50.470;12.072;2023-05-01T02:51:50;15.98;;;14.68;;
9330;SDS011;4704;50.470;12.072;2023-05-01T02:54:19;16.02;;;14.68;;
9330;SDS011;4704;50.470;12.072;2023-05-01T02:56:47;16.27;;;14.95;;
9330;SDS011;4704;50.470;12.072;2023-05-01T02:59:16;17.00;;;15.60;;
9330;SDS011;4704;50.470;12.072;2023-05-01T03:01:43;16.75;;;15.32;;
9330;SDS011;4704;50.470;12.072;2023-05-01T03:04:11;17.02;;;15.52;;
9330;SDS011;4704;50.470;12.072;2023-05-01T03:06:39;17.60;;;16.10;;
9330;SDS011;4704;50.470;12.072;2023-05-01T03:09:08;16.17;;;14.75;;
9330;SDS011;4704;50.470;12.072;2023-05-01T03:11:37;17.27;;;15.77;;
9330;SDS011;4704;50.470;12.072;2023-05-01T03:14:05;17.25;;;15.75;;
9330;SDS011;4704;50.470;12.072;2023-05-01T03:16:36;17.23;;;15.73;;
9330;SDS011;4704;50.470;12.072;2023-05-01T03:19:04;17.65;;;16.15;;
9330;SDS011;4704;50.470;12.072;2023-05-01T03:21:32;17.50;;;16.00;;
9330;SDS011;4704;50.470;12.072;2023-05-01T03:24:01;18.45;;;16.75;;
9330;SDS011;4704;50.470;12.072;2023-05-01T03:26:28;18.27;;;16.67;;
9330;SDS011;4704;50.470;12.072;2023-05-01T03:28:57;17.90;;;16.40;;
9330;SDS011;4704;50.470;12.072;2023-05-01T03:31:24;17.77;;;16.27;;
9330;SDS011;4704;50.470;12.072;2023-05-01T03:33:54;18.55;;;16.92;;
9330;SDS011;4704;50.470;12.072;2023-05-01T03:36:22;18.75;;;17.10;;
9330;SDS011;4704;50.470;12.072;2023-05-01T03:38:49;18.85;;;17.25;;
9330;SDS011;4704;50.470;12.072;2023-05-01T03:41:17;18.45;;;16.95;;
9330;SDS011;4704;50.470;12.072;2023-05-01T03:43:45;18.98;;;17.30;;
9330;SDS011;4704;50.470;12.072;2023-05-01T03:46:13;19.83;;;18.08;;
9330;SDS011;4704;50.470;12.072;2023-05-01T03:48:41;18.83;;;17.23;;
9330;SDS011;4704;50.470;12.072;2023-05-01T03:51:10;18.52;;;17.02;;
9330;SDS011;4704;50.470;12.072;2023-05-01T03:53:38;18.98;;;17.35;;
9330;SDS011;4704;50.470;12.072;2023-05-01T03:56:05;18.52;;;16.95;;
9330;SDS011;4704;50.470;12.072;2023-05-01T03:58:33;19.42;;;17.73;;
9330;SDS011;4704;50.470;12.072;2023-05-01T04:01:01;19.35;;;17.65;;
9330;SDS011;4704;50.470;12.072;2023-05-01T04:03:28;19.08;;;17.38;;
9330;SDS011;4704;50.470;12.072;2023-05-01T04:05:56;19.25;;;17.55;;
9330;SDS011;4704;50.470;12.072;2023-05-01T04:08:25;18.92;;;17.33;;
9330;SDS011;4704;50.470;12.072;2023-05-01T04:10:52;18.67;;;17.08;;
9330;SDS011;4704;50.470;12.072;2023-05-01T04:13:20;18.67;;;17.17;;
9330;SDS011;4704;50.470;12.072;2023-05-01T04:15:49;19.42;;;17.75;;
9330;SDS011;4704;50.470;12.072;2023-05-01T04:18:19;20.25;;;18.55;;
9330;SDS011;4704;50.470;12.072;2023-05-01T04:20:50;19.92;;;18.23;;
9330;SDS011;4704;50.470;12.072;2023-05-01T04:23:18;19.65;;;17.95;;
9330;SDS011;4704;50.470;12.072;2023-05-01T04:25:47;19.45;;;17.75;;
9330;SDS011;4704;50.470;12.072;2023-05-01T04:28:15;19.42;;;17.73;;
9330;SDS011;4704;50.470;12.072;2023-05-01T04:30:44;20.30;;;18.45;;
9330;SDS011;4704;50.470;12.072;2023-05-01T04:33:13;19.98;;;18.23;;
9330;SDS011;4704;50.470;12.072;2023-05-01T04:35:42;19.95;;;18.25;;
9330;SDS011;4704;50.470;12.072;2023-05-01T04:38:11;20.40;;;18.65;;
9330;SDS011;4704;50.470;12.072;2023-05-01T04:40:50;20.40;;;18.67;;
9330;SDS011;4704;50.470;12.072;2023-05-01T04:43:40;20.08;;;18.35;;
9330;SDS011;4704;50.470;12.072;2023-05-01T04:46:08;20.98;;;19.17;;
9330;SDS011;4704;50.470;12.072;2023-05-01T04:48:36;20.70;;;18.85;;
9330;SDS011;4704;50.470;12.072;2023-05-01T04:51:08;19.63;;;18.02;;
9330;SDS011;4704;50.470;12.072;2023-05-01T04:53:36;20.35;;;18.55;;
9330;SDS011;4704;50.470;12.072;2023-05-01T04:56:04;20.40;;;18.55;;
9330;SDS011;4704;50.470;12.072;2023-05-01T04:58:31;21.20;;;19.40;;
9330;SDS011;4704;50.470;12.072;2023-05-01T05:01:00;20.50;;;18.70;;
9330;SDS011;4704;50.470;12.072;2023-05-01T05:03:28;20.48;;;18.67;;
9330;SDS011;4704;50.470;12.072;2023-05-01T05:05:55;21.55;;;19.65;;
9330;SDS011;4704;50.470;12.072;2023-05-01T05:08:23;20.42;;;18.63;;
9330;SDS011;4704;50.470;12.072;2023-05-01T05:10:55;21.42;;;19.63;;
9330;SDS011;4704;50.470;12.072;2023-05-01T05:13:23;21.40;;;19.60;;
9330;SDS011;4704;50.470;12.072;2023-05-01T05:15:50;21.80;;;19.80;;
9330;SDS011;4704;50.470;12.072;2023-05-01T05:18:19;21.48;;;19.58;;
9330;SDS011;4704;50.470;12.072;2023-05-01T05:20:47;20.77;;;19.00;;
9330;SDS011;4704;50.470;12.072;2023-05-01T05:23:14;21.33;;;19.50;;
9330;SDS011;4704;50.470;12.072;2023-05-01T05:25:42;21.67;;;19.65;;
9330;SDS011;4704;50.470;12.072;2023-05-01T05:28:09;21.77;;;19.88;;
9330;SDS011;4704;50.470;12.072;2023-05-01T05:30:37;20.80;;;19.05;;
9330;SDS011;4704;50.470;12.072;2023-05-01T05:33:05;21.65;;;19.75;;
9330;SDS011;4704;50.470;12.072;2023-05-01T05:35:35;21.30;;;19.50;;
9330;SDS011;4704;50.470;12.072;2023-05-01T05:38:02;21.73;;;19.73;;
9330;SDS011;4704;50.470;12.072;2023-05-01T05:40:30;21.67;;;19.88;;
9330;SDS011;4704;50.470;12.072;2023-05-01T05:42:57;21.65;;;19.75;;
9330;SDS011;4704;50.470;12.072;2023-05-01T05:45:25;21.25;;;19.45;;
9330;SDS011;4704;50.470;12.072;2023-05-01T05:47:53;22.00;;;20.02;;
9330;SDS011;4704;50.470;12.072;2023-05-01T05:50:21;21.30;;;19.50;;
9330;SDS011;4704;50.470;12.072;2023-05-01T05:52:50;21.88;;;20.05;;
9330;SDS011;4704;50.470;12.072;2023-05-01T05:55:17;22.30;;;20.40;;
9330;SDS011;4704;50.470;12.072;2023-05-01T05:57:45;21.35;;;19.48;;
9330;SDS011;4704;50.470;12.072;2023-05-01T06:00:13;22.23;;;20.33;;
9330;SDS011;4704;50.470;12.072;2023-05-01T06:02:41;22.65;;;20.55;;
9330;SDS011;4704;50.470;12.072;2023-05-01T06:05:08;21.88;;;19.98;;
9330;SDS011;4704;50.470;12.072;2023-05-01T06:07:36;21.60;;;19.70;;
9330;SDS011;4704;50.470;12.072;2023-05-01T06:10:06;21.98;;;20.08;;
9330;SDS011;4704;50.470;12.072;2023-05-01T06:12:33;22.23;;;20.33;;
9330;SDS011;4704;50.470;12.072;2023-05-01T06:15:03;22.58;;;20.67;;
9330;SDS011;4704;50.470;12.072;2023-05-01T06:17:30;22.25;;;20.25;;
9330;SDS011;4704;50.470;12.072;2023-05-01T06:19:58;22.52;;;20.50;;
9330;SDS011;4704;50.470;12.072;2023-05-01T06:22:26;22.23;;;20.33;;
9330;SDS011;4704;50.470;12.072;2023-05-01T06:24:53;21.88;;;19.88;;
9330;SDS011;4704;50.470;12.072;2023-05-01T06:27:22;22.23;;;20.33;;
9330;SDS011;4704;50.470;12.072;2023-05-01T06:29:50;22.23;;;20.33;;
9330;SDS011;4704;50.470;12.072;2023-05-01T06:32:17;22.73;;;20.83;;
9330;SDS011;4704;50.470;12.072;2023-05-01T06:34:45;22.70;;;20.77;;
9330;SDS011;4704;50.470;12.072;2023-05-01T06:37:13;23.42;;;21.33;;
9330;SDS011;4704;50.470;12.072;2023-05-01T06:39:40;22.40;;;20.52;;
9330;SDS011;4704;50.470;12.072;2023-05-01T06:42:07;23.25;;;21.33;;
9330;SDS011;4704;50.470;12.072;2023-05-01T06:44:41;23.95;;;21.85;;
9330;SDS011;4704;50.470;12.072;2023-05-01T06:47:08;23.70;;;21.60;;
9330;SDS011;4704;50.470;12.072;2023-05-01T06:49:36;24.10;;;22.00;;
9330;SDS011;4704;50.470;12.072;2023-05-01T06:52:04;22.80;;;20.83;;
9330;SDS011;4704;50.470;12.072;2023-05-01T06:54:31;23.27;;;21.27;;
9330;SDS011;4704;50.470;12.072;2023-05-01T06:56:59;23.77;;;21.73;;
9330;SDS011;4704;50.470;12.072;2023-05-01T06:59:26;23.52;;;21.50;;
9330;SDS011;4704;50.470;12.072;2023-05-01T07:01:55;23.50;;;21.50;;
9330;SDS011;4704;50.470;12.072;2023-05-01T07:04:23;22.30;;;20.40;;
9330;SDS011;4704;50.470;12.072;2023-05-01T07:06:50;23.42;;;21.40;;
9330;SDS011;4704;50.470;12.072;2023-05-01T07:09:18;23.80;;;21.80;;
9330;SDS011;4704;50.470;12.072;2023-05-01T07:11:45;23.23;;;21.27;;
9330;SDS011;4704;50.470;12.072;2023-05-01T07:14:13;23.10;;;21.10;;
9330;SDS011;4704;50.470;12.072;2023-05-01T07:16:41;23.40;;;21.40;;
9330;SDS011;4704;50.470;12.072;2023-05-01T07:19:11;22.80;;;20.80;;
9330;SDS011;4704;50.470;12.072;2023-05-01T07:21:39;22.50;;;20.60;;
9330;SDS011;4704;50.470;12.072;2023-05-01T07:24:06;22.05;;;20.05;;
9330;SDS011;4704;50.470;12.072;2023-05-01T07:26:33;21.95;;;20.15;;
9330;SDS011;4704;50.470;12.072;2023-05-01T07:29:02;22.90;;;20.90;;
9330;SDS011;4704;50.470;12.072;2023-05-01T07:31:30;22.50;;;20.60;;
9330;SDS011;4704;50.470;12.072;2023-05-01T07:33:58;22.70;;;20.77;;
9330;SDS011;4704;50.470;12.072;2023-05-01T07:36:26;22.38;;;20.48;;
9330;SDS011;4704;50.470;12.072;2023-05-01T07:38:54;22.10;;;20.13;;
9330;SDS011;4704;50.470;12.072;2023-05-01T07:41:22;21.35;;;19.55;;
9330;SDS011;4704;50.470;12.072;2023-05-01T07:43:51;21.63;;;19.77;;
9330;SDS011;4704;50.470;12.072;2023-05-01T07:46:18;22.83;;;20.77;;
9330;SDS011;4704;50.470;12.072;2023-05-01T07:48:46;22.00;;;20.17;;
9330;SDS011;4704;50.470;12.072;2023-05-01T07:51:13;21.15;;;19.35;;
9330;SDS011;4704;50.470;12.072;2023-05-01T07:53:44;21.23;;;19.42;;
9330;SDS011;4704;50.470;12.072;2023-05-01T07:56:12;20.75;;;19.05;;
9330;SDS011;4704;50.470;12.072;2023-05-01T07:58:40;20.63;;;18.88;;
9330;SDS011;4704;50.470;12.072;2023-05-01T08:01:08;20.52;;;18.73;;
9330;SDS011;4704;50.470;12.072;2023-05-01T08:03:35;19.75;;;18.05;;
9330;SDS011;4704;50.470;12.072;2023-05-01T08:06:03;19.90;;;18.30;;
9330;SDS011;4704;50.470;12.072;2023-05-01T08:08:30;19.40;;;17.80;;
9330;SDS011;4704;50.470;12.072;2023-05-01T08:11:00;20.20;;;18.50;;
9330;SDS011;4704;50.470;12.072;2023-05-01T08:13:27;20.33;;;18.52;;
9330;SDS011;4704;50.470;12.072;2023-05-01T08:15:54;19.42;;;17.80;;
9330;SDS011;4704;50.470;12.072;2023-05-01T08:18:23;19.52;;;17.92;;
9330;SDS011;4704;50.470;12.072;2023-05-01T08:20:51;18.70;;;17.20;;
9330;SDS011;4704;50.470;12.072;2023-05-01T08:23:18;19.08;;;17.38;;
9330;SDS011;4704;50.470;12.072;2023-05-01T08:25:46;18.02;;;16.42;;
9330;SDS011;4704;50.470;12.072;2023-05-01T08:28:17;18.30;;;16.80;;
9330;SDS011;4704;50.470;12.072;2023-05-01T08:30:45;18.48;;;16.88;;
9330;SDS011;4704;50.470;12.072;2023-05-01T08:33:13;17.95;;;16.45;;
9330;SDS011;4704;50.470;12.072;2023-05-01T08:35:41;17.58;;;16.08;;
9330;SDS011;4704;50.470;12.072;2023-05-01T08:38:09;18.08;;;16.58;;
9330;SDS011;4704;50.470;12.072;2023-05-01T08:40:37;17.00;;;15.60;;
9330;SDS011;4704;50.470;12.072;2023-05-01T08:43:04;16.90;;;15.50;;
9330;SDS011;4704;50.470;12.072;2023-05-01T08:45:34;17.25;;;15.82;;
9330;SDS011;4704;50.470;12.072;2023-05-01T08:48:04;16.30;;;14.88;;
9330;SDS011;4704;50.470;12.072;2023-05-01T08:50:33;16.65;;;15.25;;
9330;SDS011;4704;50.470;12.072;2023-05-01T08:53:02;17.00;;;15.50;;
9330;SDS011;4704;50.470;12.072;2023-05-01T08:55:30;16.15;;;14.75;;
9330;SDS011;4704;50.470;12.072;2023-05-01T08:57:58;15.65;;;14.30;;
9330;SDS011;4704;50.470;12.072;2023-05-01T09:00:25;16.63;;;15.23;;
9330;SDS011;4704;50.470;12.072;2023-05-01T09:02:54;16.17;;;14.88;;
9330;SDS011;4704;50.470;12.072;2023-05-01T09:05:22;16.02;;;14.70;;
9330;SDS011;4704;50.470;12.072;2023-05-01T09:07:50;16.13;;;14.80;;
9330;SDS011;4704;50.470;12.072;2023-05-01T09:10:17;15.02;;;13.73;;
9330;SDS011;4704;50.470;12.072;2023-05-01T09:12:46;15.40;;;14.10;;
9330;SDS011;4704;50.470;12.072;2023-05-01T09:15:15;15.32;;;14.02;;
9330;SDS011;4704;50.470;12.072;2023-05-01T09:17:44;14.95;;;13.75;;
9330;SDS011;4704;50.470;12.072;2023-05-01T09:20:13;14.85;;;13.60;;
9330;SDS011;4704;50.470;12.072;2023-05-01T09:22:40;15.20;;;13.90;;
9330;SDS011;4704;50.470;12.072;2023-05-01T09:25:08;14.40;;;13.15;;
9330;SDS011;4704;50.470;12.072;2023-05-01T09:27:35;14.73;;;13.35;;
9330;SDS011;4704;50.470;12.072;2023-05-01T09:30:03;14.15;;;12.85;;
9330;SDS011;4704;50.470;12.072;2023-05-01T09:32:32;14.55;;;13.20;;
9330;SDS011;4704;50.470;12.072;2023-05-01T09:35:08;14.48;;;13.15;;
9330;SDS011;4704;50.470;12.072;2023-05-01T09:37:37;14.50;;;13.07;;
9330;SDS011;4704;50.470;12.072;2023-05-01T09:40:06;14.05;;;12.85;;
9330;SDS011;4704;50.470;12.072;2023-05-01T09:42:34;13.85;;;12.65;;
9330;SDS011;4704;50.470;12.072;2023-05-01T09:45:02;14.15;;;12.95;;
9330;SDS011;4704;50.470;12.072;2023-05-01T09:47:30;13.30;;;12.10;;
9330;SDS011;4704;50.470;12.072;2023-05-01T09:49:58;14.10;;;12.80;;
9330;SDS011;4704;50.470;12.072;2023-05-01T09:52:26;13.73;;;12.43;;
9330;SDS011;4704;50.470;12.072;2023-05-01T09:57:40;13.27;;;12.18;;
9330;SDS011;4704;50.470;12.072;2023-05-01T10:00:08;12.57;;;11.38;;
9330;SDS011;4704;50.470;12.072;2023-05-01T10:02:36;12.20;;;11.18;;
9330;SDS011;4704;50.470;12.072;2023-05-01T10:05:04;12.07;;;11.07;;
9330;SDS011;4704;50.470;12.072;2023-05-01T10:07:32;12.48;;;11.38;;
9330;SDS011;4704;50.470;12.072;2023-05-01T10:10:16;12.10;;;11.15;;
9330;SDS011;4704;50.470;12.072;2023-05-01T10:12:46;11.52;;;10.63;;
9330;SDS011;4704;50.470;12.072;2023-05-01T10:15:14;11.88;;;10.88;;
9330;SDS011;4704;50.470;12.072;2023-05-01T10:17:42;11.05;;;10.07;;
9330;SDS011;4704;50.470;12.072;2023-05-01T10:20:10;11.55;;;10.52;;
9330;SDS011;4704;50.470;12.072;2023-05-01T10:22:39;11.43;;;10.45;;
9330;SDS011;4704;50.470;12.072;2023-05-01T10:25:07;11.45;;;10.45;;
9330;SDS011;4704;50.470;12.072;2023-05-01T10:27:37;11.93;;;10.82;;
9330;SDS011;4704;50.470;12.072;2023-05-01T10:30:07;10.98;;;9.93;;
9330;SDS011;4704;50.470;12.072;2023-05-01T10:32:35;10.80;;;9.90;;
9330;SDS011;4704;50.470;12.072;2023-05-01T10:35:04;10.35;;;9.45;;
9330;SDS011;4704;50.470;12.072;2023-05-01T10:37:34;9.98;;;9.07;;
9330;SDS011;4704;50.470;12.072;2023-05-01T10:45:38;10.63;;;9.63;;
9330;SDS011;4704;50.470;12.072;2023-05-01T10:48:06;9.93;;;9.02;;
9330;SDS011;4704;50.470;12.072;2023-05-01T10:50:33;10.13;;;9.23;;
9330;SDS011;4704;50.470;12.072;2023-05-01T10:53:17;9.63;;;8.82;;
9330;SDS011;4704;50.470;12.072;2023-05-01T10:55:45;9.57;;;8.70;;
9330;SDS011;4704;50.470;12.072;2023-05-01T10:58:13;9.88;;;8.98;;
9330;SDS011;4704;50.470;12.072;2023-05-01T11:01:27;9.93;;;9.13;;
9330;SDS011;4704;50.470;12.072;2023-05-01T11:03:54;8.60;;;7.90;;
9330;SDS011;4704;50.470;12.072;2023-05-01T11:06:22;9.40;;;8.63;;
9330;SDS011;4704;50.470;12.072;2023-05-01T11:08:50;8.50;;;7.80;;
9330;SDS011;4704;50.470;12.072;2023-05-01T11:14:03;7.90;;;7.30;;
9330;SDS011;4704;50.470;12.072;2023-05-01T11:16:42;8.10;;;7.40;;
9330;SDS011;4704;50.470;12.072;2023-05-01T11:21:54;7.40;;;6.80;;
9330;SDS011;4704;50.470;12.072;2023-05-01T11:24:29;7.35;;;6.53;;
9330;SDS011;4704;50.470;12.072;2023-05-01T11:26:57;7.95;;;7.07;;
9330;SDS011;4704;50.470;12.072;2023-05-01T11:29:28;7.57;;;6.97;;
9330;SDS011;4704;50.470;12.072;2023-05-01T11:31:59;7.60;;;7.00;;
9330;SDS011;4704;50.470;12.072;2023-05-01T11:34:27;7.22;;;6.57;;
9330;SDS011;4704;50.470;12.072;2023-05-01T11:36:54;7.03;;;6.43;;
9330;SDS011;4704;50.470;12.072;2023-05-01T11:39:21;6.90;;;6.30;;
9330;SDS011;4704;50.470;12.072;2023-05-01T11:41:49;6.88;;;6.35;;
9330;SDS011;4704;50.470;12.072;2023-05-01T11:44:16;7.28;;;6.55;;
9330;SDS011;4704;50.470;12.072;2023-05-01T11:46:44;6.45;;;5.90;;
9330;SDS011;4704;50.470;12.072;2023-05-01T11:49:13;6.55;;;5.97;;
9330;SDS011;4704;50.470;12.072;2023-05-01T11:51:41;6.57;;;5.97;;
9330;SDS011;4704;50.470;12.072;2023-05-01T11:54:09;6.70;;;6.10;;
9330;SDS011;4704;50.470;12.072;2023-05-01T11:56:37;6.20;;;5.70;;
9330;SDS011;4704;50.470;12.072;2023-05-01T11:59:08;6.20;;;5.70;;
9330;SDS011;4704;50.470;12.072;2023-05-01T12:01:37;6.05;;;5.55;;
9330;SDS011;4704;50.470;12.072;2023-05-01T12:04:06;5.97;;;5.47;;
9330;SDS011;4704;50.470;12.072;2023-05-01T12:06:38;6.50;;;5.90;;
9330;SDS011;4704;50.470;12.072;2023-05-01T12:09:08;5.97;;;5.47;;
9330;SDS011;4704;50.470;12.072;2023-05-01T12:11:37;6.03;;;5.53;;
9330;SDS011;4704;50.470;12.072;2023-05-01T12:14:05;5.82;;;5.32;;
9330;SDS011;4704;50.470;12.072;2023-05-01T12:16:33;6.05;;;5.55;;
9330;SDS011;4704;50.470;12.072;2023-05-01T12:19:00;5.68;;;5.22;;
9330;SDS011;4704;50.470;12.072;2023-05-01T12:21:28;5.93;;;5.43;;
9330;SDS011;4704;50.470;12.072;2023-05-01T12:23:57;5.93;;;5.38;;
9330;SDS011;4704;50.470;12.072;2023-05-01T12:26:33;5.90;;;5.40;;
9330;SDS011;4704;50.470;12.072;2023-05-01T12:29:02;5.72;;;5.22;;
9330;SDS011;4704;50.470;12.072;2023-05-01T12:31:29;5.80;;;5.30;;
9330;SDS011;4704;50.470;12.072;2023-05-01T12:33:58;5.93;;;5.40;;
9330;SDS011;4704;50.470;12.072;2023-05-01T12:36:27;5.68;;;5.20;;
9330;SDS011;4704;50.470;12.072;2023-05-01T12:39:00;5.68;;;5.18;;
9330;SDS011;4704;50.470;12.072;2023-05-01T12:41:31;5.85;;;5.30;;
9330;SDS011;4704;50.470;12.072;2023-05-01T12:44:00;5.20;;;4.80;;
9330;SDS011;4704;50.470;12.072;2023-05-01T12:46:27;5.70;;;5.20;;
9330;SDS011;4704;50.470;12.072;2023-05-01T12:48:55;6.10;;;5.40;;
9330;SDS011;4704;50.470;12.072;2023-05-01T12:51:23;5.35;;;4.85;;
9330;SDS011;4704;50.470;12.072;2023-05-01T12:53:51;5.90;;;5.30;;
9330;SDS011;4704;50.470;12.072;2023-05-01T12:56:23;5.25;;;4.75;;
9330;SDS011;4704;50.470;12.072;2023-05-01T12:58:51;5.45;;;5.03;;
9330;SDS011;4704;50.470;12.072;2023-05-01T13:01:23;5.72;;;5.13;;
9330;SDS011;4704;50.470;12.072;2023-05-01T13:03:51;5.60;;;5.10;;
9330;SDS011;4704;50.470;12.072;2023-05-01T13:06:20;5.55;;;5.00;;
9330;SDS011;4704;50.470;12.072;2023-05-01T13:08:48;5.82;;;5.25;;
9330;SDS011;4704;50.470;12.072;2023-05-01T13:11:16;5.20;;;4.70;;
9330;SDS011;4704;50.470;12.072;2023-05-01T13:13:45;5.95;;;5.30;;
9330;SDS011;4704;50.470;12.072;2023-05-01T13:16:13;5.65;;;5.07;;
9330;SDS011;4704;50.470;12.072;2023-05-01T13:18:42;5.40;;;4.90;;
9330;SDS011;4704;50.470;12.072;2023-05-01T13:21:10;5.30;;;4.80;;
9330;SDS011;4704;50.470;12.072;2023-05-01T13:23:40;5.50;;;5.00;;
9330;SDS011;4704;50.470;12.072;2023-05-01T13:26:08;5.25;;;4.85;;
9330;SDS011;4704;50.470;12.072;2023-05-01T13:28:40;5.35;;;4.85;;
9330;SDS011;4704;50.470;12.072;2023-05-01T13:31:12;4.88;;;4.55;;
9330;SDS011;4704;50.470;12.072;2023-05-01T13:33:40;5.15;;;4.72;;
9330;SDS011;4704;50.470;12.072;2023-05-01T13:36:09;5.00;;;4.60;;
9330;SDS011;4704;50.470;12.072;2023-05-01T13:38:40;4.80;;;4.40;;
9330;SDS011;4704;50.470;12.072;2023-05-01T13:41:14;5.55;;;5.05;;
9330;SDS011;4704;50.470;12.072;2023-05-01T13:43:42;5.18;;;4.70;;
9330;SDS011;4704;50.470;12.072;2023-05-01T13:46:10;5.10;;;4.57;;
9330;SDS011;4704;50.470;12.072;2023-05-01T13:48:39;5.00;;;4.60;;
9330;SDS011;4704;50.470;12.072;2023-05-01T13:51:08;5.03;;;4.63;;
9330;SDS011;4704;50.470;12.072;2023-05-01T13:53:35;4.72;;;4.32;;
9330;SDS011;4704;50.470;12.072;2023-05-01T13:56:03;5.03;;;4.57;;
9330;SDS011;4704;50.470;12.072;2023-05-01T13:58:31;5.07;;;4.68;;
9330;SDS011;4704;50.470;12.072;2023-05-01T14:00:58;5.28;;;4.85;;
9330;SDS011;4704;50.470;12.072;2023-05-01T14:03:28;7.18;;;4.40;;
9330;SDS011;4704;50.470;12.072;2023-05-01T14:05:58;4.25;;;3.95;;
9330;SDS011;4704;50.470;12.072;2023-05-01T14:08:26;5.00;;;4.60;;
9330;SDS011;4704;50.470;12.072;2023-05-01T14:10:54;4.85;;;4.38;;
9330;SDS011;4704;50.470;12.072;2023-05-01T14:13:25;5.40;;;4.63;;
9330;SDS011;4704;50.470;12.072;2023-05-01T14:15:53;6.53;;;4.70;;
9330;SDS011;4704;50.470;12.072;2023-05-01T14:18:20;4.82;;;4.43;;
9330;SDS011;4704;50.470;12.072;2023-05-01T14:20:48;6.60;;;4.82;;
9330;SDS011;4704;50.470;12.072;2023-05-01T14:23:17;4.68;;;4.25;;
9330;SDS011;4704;50.470;12.072;2023-05-01T14:25:47;6.22;;;4.63;;
9330;SDS011;4704;50.470;12.072;2023-05-01T14:28:14;7.63;;;4.95;;
9330;SDS011;4704;50.470;12.072;2023-05-01T14:30:43;7.28;;;5.25;;
9330;SDS011;4704;50.470;12.072;2023-05-01T14:33:12;10.30;;;9.32;;
9330;SDS011;4704;50.470;12.072;2023-05-01T14:35:42;10.93;;;9.75;;
9330;SDS011;4704;50.470;12.072;2023-05-01T14:38:11;27.80;;;20.90;;
9330;SDS011;4704;50.470;12.072;2023-05-01T14:40:40;34.20;;;24.27;;
9330;SDS011;4704;50.470;12.072;2023-05-01T14:43:08;36.40;;;24.95;;
9330;SDS011;4704;50.470;12.072;2023-05-01T14:45:36;70.75;;;41.83;;
9330;SDS011;4704;50.470;12.072;2023-05-01T14:48:06;85.65;;;51.67;;
9330;SDS011;4704;50.470;12.072;2023-05-01T14:50:34;88.00;;;52.13;;
9330;SDS011;4704;50.470;12.072;2023-05-01T14:53:01;93.85;;;54.60;;
9330;SDS011;4704;50.470;12.072;2023-05-01T14:55:30;93.72;;;54.03;;
9330;SDS011;4704;50.470;12.072;2023-05-01T14:58:00;92.43;;;53.47;;
9330;SDS011;4704;50.470;12.072;2023-05-01T15:00:27;88.47;;;51.85;;
9330;SDS011;4704;50.470;12.072;2023-05-01T15:02:56;84.63;;;49.88;;
9330;SDS011;4704;50.470;12.072;2023-05-01T15:05:24;81.32;;;48.08;;
9330;SDS011;4704;50.470;12.072;2023-05-01T15:07:53;77.78;;;48.50;;
9330;SDS011;4704;50.470;12.072;2023-05-01T15:10:21;78.60;;;46.00;;